Time;durP1;ratioP1;P1;durP2;ratioP2;P2;SDS_P1;SDS_P2;PMS_P1;PMS_P2;Temp;Humidity;BMP_temperature;BMP_pressure;BME280_temperature;BME280_humidity;BME280_pressure;Samples;Min_cycle;Max_cycle;Signal;HPM_P1;HPM_P2
2022/11/13 00:00:24;;;;;;;9.25;6.32;;;5.80;99.90;;;;;;5136822;27;20074;-62
2022/11/13 00:02:49;;;;;;;16.52;5.68;;;5.40;99.90;;;;;;5137112;27;20112;-63
2022/11/13 00:05:15;;;;;;;7.82;5.22;;;5.90;99.90;;;;;;5137055;27;20081;-63
2022/11/13 00:07:41;;;;;;;11.43;5.65;;;5.50;99.90;;;;;;5136713;27;20046;-63
2022/11/13 00:10:07;;;;;;;15.77;6.95;;;5.80;99.90;;;;;;5101605;27;20051;-63
2022/11/13 00:12:33;;;;;;;7.35;5.53;;;5.50;99.90;;;;;;5136940;27;20122;-62
2022/11/13 00:14:58;;;;;;;9.35;5.80;;;6.00;99.90;;;;;;5136618;27;20031;-62
2022/11/13 00:17:24;;;;;;;8.40;5.20;;;5.80;99.90;;;;;;5136760;27;20052;-63
2022/11/13 00:19:49;;;;;;;9.07;5.82;;;6.20;99.90;;;;;;5136800;27;20035;-63
2022/11/13 00:22:15;;;;;;;8.90;5.82;;;5.90;99.90;;;;;;5136790;27;20502;-62
2022/11/13 00:24:41;;;;;;;12.50;6.57;;;6.00;99.90;;;;;;5136714;27;20470;-62
2022/11/13 00:27:06;;;;;;;10.25;6.03;;;5.80;99.90;;;;;;5136658;27;20039;-63
2022/11/13 00:29:32;;;;;;;9.45;6.25;;;5.70;99.90;;;;;;5118023;27;20439;-63
2022/11/13 00:31:58;;;;;;;11.45;6.70;;;6.00;99.90;;;;;;5136564;27;20031;-63
2022/11/13 00:34:23;;;;;;;8.38;5.68;;;6.20;99.90;;;;;;5136425;27;20077;-63
2022/11/13 00:36:49;;;;;;;10.38;5.50;;;5.90;99.90;;;;;;5136449;27;20391;-63
2022/11/13 00:39:15;;;;;;;10.88;5.57;;;6.20;99.90;;;;;;5136400;27;20084;-62
2022/11/13 00:41:40;;;;;;;10.18;6.22;;;6.20;99.90;;;;;;5118013;27;20176;-62
2022/11/13 00:44:06;;;;;;;10.52;5.72;;;5.90;99.90;;;;;;5136323;27;20046;-62
2022/11/13 00:46:32;;;;;;;14.55;5.97;;;6.80;99.90;;;;;;5117857;27;20542;-62
2022/11/13 00:48:57;;;;;;;16.15;6.38;;;6.30;99.90;;;;;;5117542;27;20043;-62
2022/11/13 00:51:23;;;;;;;10.63;5.53;;;5.90;99.90;;;;;;5136049;27;20034;-62
2022/11/13 00:53:49;;;;;;;10.20;6.35;;;5.90;99.90;;;;;;5135829;27;20039;-63
2022/11/13 00:56:14;;;;;;;10.60;5.70;;;6.20;99.90;;;;;;5135599;27;20059;-62
2022/11/13 00:58:40;;;;;;;9.77;5.38;;;6.00;99.90;;;;;;5135956;27;20118;-63
2022/11/13 01:01:09;;;;;;;12.13;6.40;;;6.30;99.90;;;;;;5136011;27;20035;-62
2022/11/13 01:03:35;;;;;;;11.40;6.07;;;5.80;99.90;;;;;;5135494;27;20085;-62
2022/11/13 01:06:18;;;;;;;9.10;5.65;;;5.80;99.90;;;;;;5099741;28;20031;-62
2022/11/13 01:08:44;;;;;;;9.75;6.57;;;5.80;99.90;;;;;;5135836;27;20077;-62
2022/11/13 01:11:12;;;;;;;8.20;6.00;;;5.90;99.90;;;;;;5135746;27;20082;-62
2022/11/13 01:13:39;;;;;;;11.32;6.30;;;5.80;99.90;;;;;;5135775;27;20470;-62
2022/11/13 01:16:08;;;;;;;9.35;6.15;;;6.00;99.90;;;;;;5117559;27;20043;-62
2022/11/13 01:18:34;;;;;;;9.88;5.72;;;5.80;99.90;;;;;;5135513;27;20530;-62
2022/11/13 01:21:06;;;;;;;8.55;5.90;;;5.90;99.90;;;;;;5135300;27;20071;-62
2022/11/13 01:23:32;;;;;;;8.13;5.85;;;5.80;99.90;;;;;;5135508;27;20054;-63
2022/11/13 01:26:11;;;;;;;9.90;6.18;;;6.30;99.90;;;;;;5135465;27;20038;-63
2022/11/13 01:28:37;;;;;;;8.10;5.80;;;6.50;99.90;;;;;;5135457;27;20038;-63
2022/11/13 01:31:08;;;;;;;10.55;6.55;;;5.90;99.90;;;;;;5116945;27;20386;-63
2022/11/13 01:33:34;;;;;;;10.80;5.70;;;5.60;99.90;;;;;;5116958;27;20543;-63
2022/11/13 01:36:09;;;;;;;10.77;6.25;;;5.80;99.90;;;;;;5134934;27;20035;-63
2022/11/13 01:38:34;;;;;;;9.95;5.60;;;5.90;99.90;;;;;;5134868;27;20049;-63
2022/11/13 01:41:00;;;;;;;8.60;5.53;;;6.10;99.90;;;;;;5135213;27;20122;-62
2022/11/13 01:43:32;;;;;;;9.95;5.45;;;6.20;99.90;;;;;;5135175;27;20035;-62
2022/11/13 01:45:57;;;;;;;7.35;5.40;;;5.60;99.90;;;;;;5134767;27;20035;-62
2022/11/13 01:48:35;;;;;;;8.77;5.45;;;5.80;99.90;;;;;;5135014;27;20043;-63
2022/11/13 01:51:12;;;;;;;7.75;5.80;;;6.10;99.90;;;;;;5135031;27;20039;-63
2022/11/13 01:53:41;;;;;;;11.93;6.80;;;6.10;99.90;;;;;;5134923;27;20390;-63
2022/11/13 01:56:07;;;;;;;9.68;6.20;;;5.80;99.90;;;;;;5134576;27;20090;-62
2022/11/13 01:58:33;;;;;;;7.07;5.25;;;6.20;99.90;;;;;;5116161;28;20494;-62
2022/11/13 02:00:58;;;;;;;13.55;5.95;;;5.80;99.90;;;;;;5134545;27;20095;-62
2022/11/13 02:03:24;;;;;;;11.52;6.30;;;6.20;99.90;;;;;;5134885;27;20031;-63
2022/11/13 02:05:51;;;;;;;8.90;5.70;;;6.20;99.90;;;;;;5134816;27;20034;-63
2022/11/13 02:08:17;;;;;;;10.70;6.45;;;6.10;99.90;;;;;;5134755;27;20043;-63
2022/11/13 02:10:43;;;;;;;13.32;7.00;;;5.50;99.90;;;;;;5134710;27;20440;-64
2022/11/13 02:13:10;;;;;;;14.27;6.65;;;5.70;99.90;;;;;;5134742;27;20074;-64
2022/11/13 02:15:36;;;;;;;11.80;5.53;;;5.70;99.90;;;;;;5134635;27;20092;-63
2022/11/13 02:18:02;;;;;;;11.30;6.40;;;6.30;99.90;;;;;;5133786;27;20043;-64
2022/11/13 02:20:34;;;;;;;8.30;6.20;;;5.70;99.90;;;;;;5134512;27;20039;-63
2022/11/13 02:23:00;;;;;;;9.55;6.13;;;5.80;99.90;;;;;;5134249;27;20038;-63
2022/11/13 02:25:27;;;;;;;11.63;6.07;;;6.10;99.90;;;;;;5134559;27;20031;-64
2022/11/13 02:27:53;;;;;;;10.32;6.10;;;5.90;99.90;;;;;;5134537;27;20121;-64
2022/11/13 02:30:22;;;;;;;11.40;6.28;;;5.80;99.90;;;;;;5134206;27;20136;-63
2022/11/13 02:32:50;;;;;;;12.45;6.47;;;5.60;99.90;;;;;;5134510;28;20558;-64
2022/11/13 02:35:21;;;;;;;9.02;6.03;;;5.70;99.90;;;;;;5134499;28;20620;-64
2022/11/13 02:37:47;;;;;;;10.50;6.40;;;6.40;99.90;;;;;;5116105;28;20066;-65
2022/11/13 02:40:13;;;;;;;10.55;6.20;;;6.20;99.90;;;;;;5134111;28;20039;-64
2022/11/13 02:42:39;;;;;;;10.05;5.85;;;5.70;99.90;;;;;;5134053;28;20035;-64
2022/11/13 02:45:06;;;;;;;8.52;5.80;;;5.80;99.90;;;;;;5115687;28;20062;-63
2022/11/13 02:47:32;;;;;;;9.32;6.05;;;5.70;99.90;;;;;;5115827;28;20118;-64
2022/11/13 02:49:58;;;;;;;11.80;6.80;;;6.20;99.90;;;;;;5134264;28;20031;-64
2022/11/13 02:52:24;;;;;;;10.80;6.97;;;6.30;99.90;;;;;;5116107;28;20027;-63
2022/11/13 02:54:49;;;;;;;12.82;6.95;;;5.80;99.90;;;;;;5115651;28;20039;-63
2022/11/13 02:57:15;;;;;;;9.70;6.18;;;6.00;99.90;;;;;;5113755;28;20048;-63
2022/11/13 02:59:40;;;;;;;9.02;5.97;;;6.20;99.90;;;;;;5113238;28;20051;-63
2022/11/13 03:02:06;;;;;;;9.25;5.70;;;6.20;99.90;;;;;;5113676;28;20080;-63
2022/11/13 03:04:32;;;;;;;9.98;5.82;;;6.40;99.90;;;;;;5113440;28;20040;-63
2022/11/13 03:06:58;;;;;;;9.43;5.75;;;6.00;99.90;;;;;;5113595;28;20047;-66
2022/11/13 03:09:23;;;;;;;8.63;5.70;;;6.40;99.90;;;;;;5113517;28;20051;-64
2022/11/13 03:11:49;;;;;;;12.13;6.32;;;6.00;99.90;;;;;;5113324;28;20372;-64
2022/11/13 03:14:15;;;;;;;12.75;5.95;;;6.30;99.90;;;;;;5113574;28;20044;-64
2022/11/13 03:16:40;;;;;;;9.57;6.35;;;7.10;99.90;;;;;;5113136;28;20055;-64
2022/11/13 03:19:06;;;;;;;11.40;6.15;;;6.70;99.90;;;;;;5113431;28;20043;-63
2022/11/13 03:21:32;;;;;;;8.65;5.72;;;6.20;99.90;;;;;;5113439;28;20092;-64
2022/11/13 03:23:57;;;;;;;8.98;5.85;;;7.00;99.90;;;;;;5113454;28;20031;-63
2022/11/13 03:26:23;;;;;;;12.20;5.85;;;6.50;99.90;;;;;;5113414;28;20470;-64
2022/11/13 03:28:49;;;;;;;13.38;7.13;;;6.10;99.90;;;;;;5095251;28;20043;-64
2022/11/13 03:31:15;;;;;;;12.50;5.57;;;6.40;99.90;;;;;;5098570;28;20079;-63
2022/11/13 03:33:40;;;;;;;10.10;6.25;;;6.50;99.90;;;;;;5117130;28;20114;-63
2022/11/13 03:36:06;;;;;;;11.55;5.90;;;6.70;99.90;;;;;;5117098;28;20078;-64
2022/11/13 03:38:32;;;;;;;12.05;6.50;;;6.30;99.90;;;;;;5117026;28;20390;-63
2022/11/13 03:40:58;;;;;;;8.48;5.53;;;6.80;99.90;;;;;;5116690;28;20039;-64
2022/11/13 03:43:23;;;;;;;9.25;5.72;;;6.40;99.90;;;;;;5116650;28;20092;-64
2022/11/13 03:45:49;;;;;;;8.27;5.63;;;6.40;99.90;;;;;;5116642;28;20032;-63
2022/11/13 03:48:16;;;;;;;9.75;5.90;;;6.40;99.90;;;;;;5098761;28;20047;-64
2022/11/13 03:50:44;;;;;;;10.02;5.85;;;6.50;99.90;;;;;;5116812;28;20043;-64
2022/11/13 03:53:10;;;;;;;11.02;5.57;;;6.40;99.90;;;;;;5098271;28;20048;-63
2022/11/13 03:55:36;;;;;;;9.85;5.57;;;6.00;99.90;;;;;;5122825;27;20062;-64
2022/11/13 03:58:02;;;;;;;9.73;5.35;;;5.90;99.90;;;;;;5137212;27;20043;-64
2022/11/13 04:00:29;;;;;;;9.07;5.55;;;6.10;99.90;;;;;;5137141;27;20465;-64
2022/11/13 04:02:54;;;;;;;10.38;5.45;;;5.90;99.90;;;;;;5137167;27;20076;-63
2022/11/13 04:05:21;;;;;;;7.32;5.43;;;6.00;99.90;;;;;;5137092;27;20039;-63
2022/11/13 04:07:47;;;;;;;8.98;4.72;;;6.10;99.90;;;;;;5137051;27;20039;-64
2022/11/13 04:10:13;;;;;;;9.25;6.05;;;6.50;99.90;;;;;;5137070;27;20432;-67
2022/11/13 04:12:39;;;;;;;10.98;6.13;;;5.70;99.90;;;;;;5118234;27;20039;-64
2022/11/13 04:15:05;;;;;;;11.27;5.82;;;5.60;99.90;;;;;;5118185;27;20057;-64
2022/11/13 04:17:31;;;;;;;7.63;5.10;;;5.60;99.90;;;;;;5136405;27;20039;-64
2022/11/13 04:19:57;;;;;;;8.30;5.28;;;5.80;99.90;;;;;;5136558;27;20039;-63
2022/11/13 04:22:22;;;;;;;8.80;5.15;;;5.70;99.90;;;;;;5136730;27;20039;-63
2022/11/13 04:24:48;;;;;;;8.20;5.20;;;5.70;99.90;;;;;;5136756;27;20035;-63
2022/11/13 04:27:14;;;;;;;8.77;5.57;;;5.20;99.90;;;;;;5136376;27;20420;-63
2022/11/13 04:29:39;;;;;;;8.35;4.78;;;5.40;99.90;;;;;;5136576;27;20039;-63
2022/11/13 04:32:05;;;;;;;10.38;5.30;;;5.60;99.90;;;;;;5101091;27;20130;-63
2022/11/13 04:34:31;;;;;;;9.25;5.38;;;5.70;99.90;;;;;;5136506;27;20144;-63
2022/11/13 04:36:56;;;;;;;8.43;5.43;;;5.20;99.90;;;;;;5136487;27;20049;-64
2022/11/13 04:39:22;;;;;;;9.25;5.05;;;;;;;;;;5136586;27;20069;-64
2022/11/13 04:44:32;;;;;;;11.32;5.07;;;5.00;99.90;;;;;;5136334;27;20035;-63
2022/11/13 04:46:58;;;;;;;9.50;4.93;;;5.10;99.90;;;;;;5136287;27;20114;-64
2022/11/13 04:49:23;;;;;;;10.52;5.55;;;5.00;99.90;;;;;;5117544;27;20104;-66
2022/11/13 04:51:49;;;;;;;9.43;5.10;;;5.00;99.90;;;;;;5136223;27;20038;-63
2022/11/13 04:54:15;;;;;;;7.53;5.07;;;5.00;99.90;;;;;;5100580;27;20080;-63
2022/11/13 04:56:40;;;;;;;8.75;4.25;;;5.00;99.90;;;;;;5135633;27;20099;-63
2022/11/13 04:59:07;;;;;;;10.77;5.57;;;5.00;99.90;;;;;;5135946;27;20043;-63
2022/11/13 05:01:35;;;;;;;9.80;5.00;;;5.80;99.90;;;;;;5136014;27;20474;-63
2022/11/13 05:04:01;;;;;;;8.65;4.88;;;;;;;;;;5135710;27;20039;-63
2022/11/13 05:06:27;;;;;;;10.63;6.07;;;;;;;;;;5117122;27;20051;-63
2022/11/13 05:08:53;;;;;;;6.15;4.30;;;;;;;;;;5135870;27;20087;-64
2022/11/13 05:11:18;;;;;;;8.20;5.45;;;5.00;99.90;;;;;;5135833;27;20497;-66
2022/11/13 05:13:44;;;;;;;6.80;4.63;;;4.90;99.90;;;;;;5135773;27;20039;-63
2022/11/13 05:16:12;;;;;;;7.90;5.28;;;4.80;99.90;;;;;;5135686;27;20481;-63
2022/11/13 05:18:38;;;;;;;12.10;6.10;;;4.80;99.90;;;;;;5135489;27;20046;-63
2022/11/13 05:21:06;;;;;;;8.75;4.85;;;5.20;99.90;;;;;;5135604;27;20042;-63
2022/11/13 05:23:32;;;;;;;10.25;5.28;;;4.70;99.90;;;;;;5135580;27;20031;-63
2022/11/13 05:26:09;;;;;;;7.63;4.60;;;4.70;99.90;;;;;;5135199;27;20075;-63
2022/11/13 05:28:36;;;;;;;12.23;5.60;;;4.70;99.90;;;;;;5135164;27;20050;-63
2022/11/13 05:31:11;;;;;;;7.63;5.15;;;4.70;99.90;;;;;;5135056;27;20035;-63
2022/11/13 05:33:37;;;;;;;9.23;4.68;;;4.70;99.90;;;;;;5135360;27;20046;-63
2022/11/13 05:36:05;;;;;;;7.82;4.43;;;4.70;99.90;;;;;;5135367;27;20468;-64
2022/11/13 05:38:31;;;;;;;5.85;3.97;;;4.70;99.90;;;;;;5135194;27;20058;-64
2022/11/13 05:41:05;;;;;;;10.00;4.78;;;4.70;99.90;;;;;;5134889;27;20034;-63
2022/11/13 05:43:31;;;;;;;8.52;4.70;;;4.60;99.90;;;;;;5116872;27;20042;-63
2022/11/13 05:46:05;;;;;;;7.68;5.22;;;4.60;99.90;;;;;;5116423;27;20075;-66
2022/11/13 05:48:32;;;;;;;9.13;4.80;;;4.50;99.90;;;;;;5134852;27;20122;-64
2022/11/13 05:51:10;;;;;;;7.60;4.57;;;4.90;99.90;;;;;;5116379;27;20043;-63
2022/11/13 05:53:36;;;;;;;6.45;4.90;;;4.50;99.90;;;;;;5134807;27;20035;-63
2022/11/13 05:56:04;;;;;;;10.13;5.53;;;5.30;99.90;;;;;;5116163;27;20055;-63
2022/11/13 05:58:30;;;;;;;8.20;5.05;;;4.40;99.90;;;;;;5134802;27;20466;-63
2022/11/13 06:01:11;;;;;;;8.45;4.57;;;5.50;99.90;;;;;;5099562;27;20039;-63
2022/11/13 06:03:37;;;;;;;;;;;4.40;99.90;;;;;;5135263;27;20110;-64
2022/11/13 06:06:08;;;;;;;10.45;5.38;;;4.40;99.90;;;;;;5134875;27;19970;-63
2022/11/13 06:08:34;;;;;;;6.35;4.40;;;4.40;99.90;;;;;;5134733;27;20043;-63
2022/11/13 06:11:11;;;;;;;7.72;4.90;;;4.30;99.90;;;;;;5116345;27;20390;-63
2022/11/13 06:13:38;;;;;;;7.50;4.53;;;4.30;99.90;;;;;;5134632;27;20114;-63
2022/11/13 06:16:05;;;;;;;11.02;4.72;;;4.30;99.90;;;;;;5134496;27;20042;-63
2022/11/13 06:18:31;;;;;;;7.43;4.88;;;4.20;99.90;;;;;;5134568;27;20034;-63
2022/11/13 06:21:06;;;;;;;11.48;4.65;;;4.20;99.90;;;;;;5134635;27;20058;-63
2022/11/13 06:23:37;;;;;;;6.72;4.72;;;4.10;99.90;;;;;;5134204;27;20039;-63
2022/11/13 06:26:09;;;;;;;6.03;3.55;;;4.10;99.90;;;;;;5134222;27;20035;-63
2022/11/13 06:28:35;;;;;;;7.10;4.32;;;4.10;99.90;;;;;;5116104;28;20051;-63
2022/11/13 06:31:09;;;;;;;7.30;4.68;;;4.10;99.90;;;;;;5134514;28;20035;-63
2022/11/13 06:33:36;;;;;;;8.15;4.88;;;4.10;99.90;;;;;;5134232;28;20514;-63
2022/11/13 06:36:03;;;;;;;7.97;3.92;;;4.10;99.90;;;;;;5134272;28;20070;-63
2022/11/13 06:38:33;;;;;;;7.05;4.07;;;4.00;99.90;;;;;;5134377;28;20603;-63
2022/11/13 06:41:00;;;;;;;7.28;4.15;;;4.00;99.90;;;;;;5134117;28;20071;-63
2022/11/13 06:43:26;;;;;;;13.77;5.22;;;4.10;99.90;;;;;;5134024;28;20036;-63
2022/11/13 06:45:52;;;;;;;7.75;4.22;;;4.10;99.90;;;;;;5134414;28;20523;-63
2022/11/13 06:48:18;;;;;;;6.63;4.03;;;4.10;99.90;;;;;;5133995;28;20038;-63
2022/11/13 06:50:44;;;;;;;14.05;8.25;;;4.20;99.90;;;;;;5134215;28;20039;-63
2022/11/13 06:53:10;;;;;;;6.55;4.93;;;4.20;99.90;;;;;;5132901;28;20043;-64
2022/11/13 06:55:40;;;;;;;8.68;5.07;;;4.20;99.90;;;;;;5133989;28;20063;-64
2022/11/13 06:58:06;;;;;;;7.10;4.47;;;4.30;99.90;;;;;;5115622;28;20126;-65
2022/11/13 07:00:32;;;;;;;8.13;5.07;;;4.30;99.90;;;;;;5134159;28;20062;-63
2022/11/13 07:02:57;;;;;;;8.15;4.43;;;4.30;99.90;;;;;;5133845;28;20128;-63
2022/11/13 07:05:23;;;;;;;7.38;4.60;;;4.30;99.90;;;;;;5136286;27;20035;-64
2022/11/13 07:07:48;;;;;;;10.95;4.82;;;4.30;99.90;;;;;;5138273;27;20118;-63
2022/11/13 07:10:14;;;;;;;10.93;4.80;;;4.30;99.90;;;;;;5138201;27;20154;-63
2022/11/13 07:12:40;;;;;;;7.10;4.70;;;4.40;99.90;;;;;;5119686;27;20496;-64
2022/11/13 07:15:06;;;;;;;8.00;4.88;;;4.40;99.90;;;;;;5137820;27;20039;-63
2022/11/13 07:17:31;;;;;;;8.90;5.28;;;4.40;99.90;;;;;;5138021;27;20035;-63
2022/11/13 07:19:57;;;;;;;8.30;5.10;;;4.30;99.90;;;;;;5102281;27;20040;-63
2022/11/13 07:22:23;;;;;;;8.07;4.65;;;4.30;99.90;;;;;;5137626;27;20035;-63
2022/11/13 07:24:48;;;;;;;6.40;4.10;;;5.30;99.90;;;;;;5137912;27;20042;-63
2022/11/13 07:27:14;;;;;;;7.40;5.00;;;4.30;99.90;;;;;;5137916;27;20122;-63
2022/11/13 07:29:40;;;;;;;7.78;5.07;;;4.30;99.90;;;;;;5119478;27;20039;-64
2022/11/13 07:32:06;;;;;;;9.70;4.45;;;4.30;99.90;;;;;;5137415;27;20043;-63
2022/11/13 07:34:32;;;;;;;7.68;5.45;;;4.50;99.90;;;;;;5137667;27;20035;-63
2022/11/13 07:36:57;;;;;;;5.75;4.28;;;4.30;99.90;;;;;;5119402;27;20039;-63
2022/11/13 07:39:23;;;;;;;7.30;4.32;;;4.30;99.90;;;;;;5137583;27;20470;-63
2022/11/13 07:41:49;;;;;;;5.78;4.05;;;4.30;99.90;;;;;;5119176;27;20071;-63
2022/11/13 07:44:14;;;;;;;8.25;4.93;;;4.30;99.90;;;;;;5137580;27;20070;-63
2022/11/13 07:46:40;;;;;;;12.07;5.22;;;4.30;99.90;;;;;;5137463;27;20046;-63
2022/11/13 07:49:06;;;;;;;6.63;4.18;;;4.30;99.90;;;;;;5137426;27;20433;-63
2022/11/13 07:51:31;;;;;;;9.02;4.68;;;4.30;99.90;;;;;;5137381;27;20042;-63
2022/11/13 07:53:57;;;;;;;6.97;4.10;;;4.40;99.90;;;;;;5137379;27;20061;-63
2022/11/13 07:56:24;;;;;;;8.65;5.15;;;4.40;99.90;;;;;;5137060;27;20054;-64
2022/11/13 07:58:50;;;;;;;8.20;5.13;;;4.40;99.90;;;;;;5137183;27;20051;-63
2022/11/13 08:01:16;;;;;;;8.15;4.78;;;4.50;99.90;;;;;;5136846;27;20393;-63
2022/11/13 08:03:41;;;;;;;7.88;5.03;;;4.80;99.90;;;;;;5137099;27;20087;-63
2022/11/13 08:06:07;;;;;;;10.15;5.40;;;4.80;99.90;;;;;;5137132;27;20088;-63
2022/11/13 08:08:34;;;;;;;11.40;5.60;;;4.60;99.90;;;;;;5118821;27;20039;-63
2022/11/13 08:11:08;;;;;;;10.68;5.25;;;4.70;99.90;;;;;;5136774;27;20035;-63
2022/11/13 08:13:34;;;;;;;9.35;4.85;;;4.70;99.90;;;;;;5136960;27;20457;-63
2022/11/13 08:16:01;;;;;;;9.07;5.60;;;5.50;99.90;;;;;;5136833;27;20546;-63
2022/11/13 08:18:28;;;;;;;6.80;5.00;;;5.10;99.90;;;;;;5136433;27;20047;-63
2022/11/13 08:20:54;;;;;;;12.57;5.10;;;4.90;99.90;;;;;;5136510;27;20037;-63
2022/11/13 08:23:20;;;;;;;8.18;4.85;;;5.00;99.90;;;;;;5136863;27;20114;-63
2022/11/13 08:25:46;;;;;;;9.02;5.70;;;5.00;99.90;;;;;;5136393;27;20046;-63
2022/11/13 08:28:11;;;;;;;9.68;5.32;;;5.10;99.90;;;;;;5136652;27;20046;-63
2022/11/13 08:30:37;;;;;;;8.45;5.43;;;5.20;99.90;;;;;;5136634;27;20043;-63
2022/11/13 08:33:03;;;;;;;9.15;4.90;;;5.20;99.90;;;;;;5136322;27;20043;-63
2022/11/13 08:35:29;;;;;;;8.93;4.93;;;5.30;99.90;;;;;;5136515;27;20050;-63
2022/11/13 08:38:01;;;;;;;10.85;5.30;;;5.30;99.90;;;;;;5136143;27;20038;-63
2022/11/13 08:40:27;;;;;;;11.18;4.65;;;5.40;99.90;;;;;;5117755;27;20058;-63
2022/11/13 08:43:00;;;;;;;9.05;5.38;;;5.90;99.90;;;;;;5136133;27;20486;-63
2022/11/13 08:45:27;;;;;;;7.78;4.85;;;5.50;99.90;;;;;;5136334;27;20043;-63
2022/11/13 08:47:52;;;;;;;10.55;4.97;;;5.50;99.90;;;;;;5136287;27;20039;-63
2022/11/13 08:50:18;;;;;;;11.25;5.07;;;5.80;99.90;;;;;;5117530;27;20069;-63
2022/11/13 08:52:44;;;;;;;8.73;5.07;;;5.60;99.90;;;;;;5135943;27;20508;-63
2022/11/13 08:55:10;;;;;;;8.45;4.93;;;5.60;99.90;;;;;;5135629;27;20042;-63
2022/11/13 08:57:36;;;;;;;7.97;4.80;;;5.70;99.90;;;;;;5136125;27;20043;-63
2022/11/13 09:00:02;;;;;;;6.55;4.45;;;5.80;99.90;;;;;;5136019;27;20039;-65
2022/11/13 09:02:27;;;;;;;8.38;4.80;;;5.80;99.90;;;;;;5135988;27;20114;-63
2022/11/13 09:04:53;;;;;;;10.15;5.40;;;5.80;99.90;;;;;;5135688;27;20074;-63
2022/11/13 09:07:19;;;;;;;8.82;5.03;;;6.40;99.90;;;;;;5135601;27;20036;-63
2022/11/13 09:09:44;;;;;;;8.73;4.63;;;6.00;99.90;;;;;;5135570;27;20039;-63
2022/11/13 09:12:11;;;;;;;6.55;4.57;;;6.40;99.90;;;;;;5117424;27;20031;-63
2022/11/13 09:14:36;;;;;;;8.95;5.38;;;6.50;99.90;;;;;;5135490;27;20057;-63
2022/11/13 09:17:02;;;;;;;8.00;4.82;;;6.20;99.90;;;;;;5135689;27;20031;-63
2022/11/13 09:19:28;;;;;;;9.93;5.72;;;6.30;99.90;;;;;;5135557;27;20043;-63
2022/11/13 09:21:54;;;;;;;6.75;4.55;;;6.10;99.90;;;;;;5135642;27;20038;-63
2022/11/13 09:24:19;;;;;;;8.50;5.78;;;6.40;99.90;;;;;;5135535;27;20110;-64
2022/11/13 09:26:45;;;;;;;11.13;5.70;;;6.50;99.90;;;;;;5116981;27;20523;-64
2022/11/13 09:29:11;;;;;;;8.35;5.07;;;6.50;99.90;;;;;;5134915;27;20043;-63
2022/11/13 09:31:39;;;;;;;10.27;4.72;;;6.70;99.90;;;;;;5117171;27;20035;-63
2022/11/13 09:34:06;;;;;;;8.38;5.32;;;7.10;99.90;;;;;;5135336;27;20051;-64
2022/11/13 09:36:32;;;;;;;8.48;4.78;;;6.80;99.90;;;;;;5135229;27;20043;-63
2022/11/13 09:38:59;;;;;;;8.25;5.25;;;6.80;99.90;;;;;;5135238;27;20038;-63
2022/11/13 09:41:33;;;;;;;8.27;5.15;;;6.90;99.90;;;;;;5116570;27;20035;-64
2022/11/13 09:44:02;;;;;;;8.38;5.18;;;6.90;99.90;;;;;;5135181;27;20078;-63
2022/11/13 09:46:46;;;;;;;6.90;4.40;;;7.20;99.90;;;;;;5117130;27;20074;-64
2022/11/13 09:49:31;;;;;;;10.05;5.63;;;7.00;99.90;;;;;;5134741;27;20038;-63
2022/11/13 09:52:01;;;;;;;6.78;5.00;;;7.10;99.90;;;;;;5135043;27;20466;-64
2022/11/13 09:54:27;;;;;;;7.65;5.32;;;7.10;99.90;;;;;;5116660;27;20042;-63
2022/11/13 09:57:00;;;;;;;8.40;5.18;;;7.20;99.90;;;;;;5134637;27;20058;-64
2022/11/13 10:00:14;;;;;;;8.43;5.00;;;7.20;99.90;;;;;;5134534;27;20127;-64
2022/11/13 10:03:11;;;;;;;11.05;4.80;;;7.30;99.90;;;;;;5051329;28;20037;-63
2022/11/13 10:05:42;;;;;;;9.82;4.70;;;7.40;99.90;;;;;;5051368;28;20051;-63
2022/11/13 10:08:07;;;;;;;8.63;4.78;;;7.40;99.90;;;;;;5110730;27;20108;-63
2022/11/13 10:11:11;;;;;;;7.05;4.78;;;7.40;99.90;;;;;;5134767;27;20441;-63
2022/11/13 10:13:41;;;;;;;7.00;4.75;;;7.40;99.90;;;;;;5051070;28;20049;-64
2022/11/13 10:16:28;;;;;;;11.05;5.05;;;7.40;99.90;;;;;;5051262;28;20090;-63
2022/11/13 10:19:24;;;;;;;9.63;5.78;;;7.40;99.90;;;;;;5104549;27;20375;-64
2022/11/13 10:21:59;;;;;;;6.95;4.38;;;7.40;99.90;;;;;;5085277;27;20047;-63
2022/11/13 10:24:28;;;;;;;13.63;5.40;;;7.50;99.90;;;;;;5115918;27;20046;-63
2022/11/13 10:26:58;;;;;;;6.97;5.30;;;7.60;99.90;;;;;;5134585;27;20031;-63
2022/11/13 10:29:27;;;;;;;6.63;4.47;;;7.60;99.90;;;;;;5115908;27;20046;-64
2022/11/13 10:31:53;;;;;;;9.10;5.07;;;7.70;99.90;;;;;;5134527;27;20035;-65
2022/11/13 10:34:19;;;;;;;8.10;4.90;;;8.30;99.90;;;;;;5134243;28;20035;-63
2022/11/13 10:37:01;;;;;;;8.85;5.68;;;7.80;99.90;;;;;;5134389;28;20514;-65
2022/11/13 10:39:26;;;;;;;9.95;5.35;;;8.20;99.90;;;;;;5134933;27;20075;-63
2022/11/13 10:41:53;;;;;;;9.63;5.60;;;8.20;99.90;;;;;;5138429;27;20505;-63
2022/11/13 10:44:32;;;;;;;8.38;5.13;;;8.30;99.90;;;;;;5138717;27;20035;-63
2022/11/13 10:47:18;;;;;;;7.68;5.53;;;8.40;99.90;;;;;;5120219;27;20035;-63
2022/11/13 10:49:44;;;;;;;7.57;5.20;;;8.50;99.90;;;;;;5138298;27;20039;-64
2022/11/13 10:52:20;;;;;;;10.18;4.90;;;8.90;99.90;;;;;;5138533;27;20054;-63
2022/11/13 10:54:46;;;;;;;6.80;4.45;;;8.80;99.90;;;;;;5138159;27;20043;-63
2022/11/13 10:57:24;;;;;;;7.65;4.72;;;9.00;99.90;;;;;;5137955;27;20051;-63
2022/11/13 10:59:50;;;;;;;10.10;5.63;;;9.10;99.90;;;;;;5138385;27;20086;-64
2022/11/13 11:02:21;;;;;;;8.45;5.32;;;9.20;99.90;;;;;;5138360;27;20063;-63
2022/11/13 11:04:47;;;;;;;12.15;5.50;;;9.20;99.90;;;;;;5138285;27;20106;-63
2022/11/13 11:07:20;;;;;;;6.35;4.50;;;9.60;99.90;;;;;;5138345;27;20066;-63
2022/11/13 11:09:47;;;;;;;6.15;4.28;;;9.50;99.90;;;;;;5138242;27;20114;-63
2022/11/13 11:12:14;;;;;;;7.28;5.13;;;9.70;99.90;;;;;;5138156;27;20061;-63
2022/11/13 11:14:51;;;;;;;6.93;5.20;;;9.70;99.90;;;;;;5137761;27;20039;-63
2022/11/13 11:17:19;;;;;;;7.30;4.55;;;9.80;99.90;;;;;;5137728;27;20043;-63
2022/11/13 11:19:54;;;;;;;7.03;4.80;;;10.20;99.90;;;;;;5137914;27;20550;-63
2022/11/13 11:22:26;;;;;;;6.50;4.90;;;10.70;99.90;;;;;;5137522;27;20074;-63
2022/11/13 11:25:05;;;;;;;7.00;4.47;;;11.10;99.90;;;;;;5137848;27;20394;-63
2022/11/13 11:27:39;;;;;;;8.05;5.13;;;11.30;99.90;;;;;;5137393;27;20035;-64
2022/11/13 11:30:20;;;;;;;5.80;4.30;;;11.40;99.90;;;;;;5137402;27;20047;-63
2022/11/13 11:33:00;;;;;;;6.53;4.43;;;11.70;99.90;;;;;;5137665;27;20118;-64
2022/11/13 11:35:58;;;;;;;6.75;4.70;;;12.00;99.90;;;;;;5118977;27;20295;-64
2022/11/13 11:38:26;;;;;;;7.22;4.05;;;12.30;99.90;;;;;;5119122;27;20036;-65
2022/11/13 11:41:09;;;;;;;5.88;4.53;;;12.70;99.90;;;;;;5137508;27;20371;-63
2022/11/13 11:43:53;;;;;;;5.72;4.10;;;13.20;99.90;;;;;;5137095;27;20035;-63
2022/11/13 11:46:22;;;;;;;5.45;3.80;;;13.80;99.90;;;;;;5137140;27;20035;-63
2022/11/13 11:48:49;;;;;;;8.32;4.03;;;14.70;99.90;;;;;;5119054;27;20470;-64
2022/11/13 11:51:32;;;;;;;9.40;4.40;;;;;;;;;;5118141;27;20051;-64
2022/11/13 11:54:04;;;;;;;5.75;3.60;;;;;;;;;;5137280;27;20497;-64
2022/11/13 11:56:41;;;;;;;6.75;3.92;;;;;;;;;;5118564;27;20555;-64
2022/11/13 11:59:41;;;;;;;6.13;4.20;;;15.30;96.70;;;;;;5136710;27;20069;-64
2022/11/13 12:02:23;;;;;;;6.40;3.90;;;15.20;99.30;;;;;;5118365;27;20042;-64
2022/11/13 12:05:22;;;;;;;5.05;3.53;;;15.20;99.90;;;;;;5118281;27;20047;-64
2022/11/13 12:07:57;;;;;;;6.53;3.53;;;15.30;99.90;;;;;;5133177;27;20054;-64
2022/11/13 12:10:34;;;;;;;5.65;3.55;;;15.10;84.20;;;;;;5118471;27;20389;-64
2022/11/13 12:13:30;;;;;;;5.10;3.72;;;15.10;94.50;;;;;;5118267;27;20045;-64
2022/11/13 12:16:29;;;;;;;6.78;3.78;;;14.90;62.60;;;;;;5118193;27;20094;-64
2022/11/13 12:19:03;;;;;;;5.43;3.55;;;14.60;61.20;;;;;;5136719;27;20421;-65
2022/11/13 12:21:54;;;;;;;6.75;4.15;;;14.20;65.60;;;;;;5136683;27;20035;-64
2022/11/13 12:24:55;;;;;;;5.05;3.40;;;13.80;52.20;;;;;;5136424;27;20079;-64
2022/11/13 12:27:27;;;;;;;4.35;3.53;;;13.40;67.80;;;;;;5130641;27;20039;-64
2022/11/13 12:30:06;;;;;;;4.43;3.20;;;13.10;77.00;;;;;;5117863;27;20051;-64
2022/11/13 12:32:59;;;;;;;5.63;3.38;;;12.90;83.80;;;;;;5136488;27;20509;-64
2022/11/13 12:35:26;;;;;;;3.67;3.00;;;12.60;83.50;;;;;;5136507;27;20070;-64
2022/11/13 12:38:01;;;;;;;5.10;3.70;;;12.40;90.70;;;;;;5136260;27;20498;-64
2022/11/13 12:40:41;;;;;;;5.82;3.38;;;12.30;93.60;;;;;;5136469;27;20047;-64
2022/11/13 12:43:22;;;;;;;5.45;3.42;;;12.10;95.00;;;;;;5136426;27;20043;-64
2022/11/13 12:46:07;;;;;;;6.10;3.70;;;11.90;74.50;;;;;;5136405;27;20046;-64
2022/11/13 12:48:41;;;;;;;6.45;3.78;;;11.80;91.40;;;;;;5136053;27;20035;-64
2022/11/13 12:51:13;;;;;;;7.20;3.90;;;11.80;94.30;;;;;;5117864;27;20513;-64
2022/11/13 12:53:55;;;;;;;9.68;4.60;;;11.70;96.10;;;;;;5136188;27;20479;-64
2022/11/13 12:56:23;;;;;;;6.88;3.97;;;11.60;97.70;;;;;;5135651;27;20066;-64
2022/11/13 12:59:02;;;;;;;5.47;3.88;;;11.60;96.70;;;;;;5135945;27;20493;-64
2022/11/13 13:01:33;;;;;;;5.95;3.85;;;11.50;98.20;;;;;;5135813;27;20106;-64
2022/11/13 13:04:36;;;;;;;4.50;3.08;;;11.40;98.90;;;;;;5135267;27;20043;-64
2022/11/13 13:07:23;;;;;;;7.03;3.85;;;11.40;98.60;;;;;;5117206;27;20078;-64
2022/11/13 13:10:26;;;;;;;8.10;3.80;;;11.30;96.70;;;;;;5117396;27;20039;-64